createdAt,value
2023-01-18T00:00:53.567Z,6.90
2023-01-18T00:01:56.095Z,6.32
2023-01-18T00:02:59.912Z,6.28
2023-01-18T00:04:08.791Z,6.45
2023-01-18T00:05:12.306Z,6.85
2023-01-18T00:06:14.969Z,6.72
2023-01-18T00:07:18.446Z,7.55
2023-01-18T00:08:21.033Z,7.85
2023-01-18T00:09:30.810Z,8.27
2023-01-18T00:10:33.356Z,9.57
2023-01-18T00:11:36.775Z,9.65
2023-01-18T00:12:39.263Z,11.20
2023-01-18T00:13:48.848Z,9.55
2023-01-18T00:14:51.449Z,11.38
2023-01-18T00:15:56.193Z,11.35
2023-01-18T00:17:04.794Z,11.68
2023-01-18T00:18:08.301Z,9.50
2023-01-18T00:19:19.815Z,9.07
2023-01-18T00:20:24.674Z,10.40
2023-01-18T00:21:28.529Z,9.23
2023-01-18T00:22:32.065Z,8.15
2023-01-18T00:23:40.836Z,8.13
2023-01-18T00:24:44.263Z,10.18
2023-01-18T00:25:55.056Z,12.05
2023-01-18T00:27:11.819Z,11.30
2023-01-18T00:28:14.293Z,8.38
2023-01-18T00:29:23.801Z,7.72
2023-01-18T00:30:27.325Z,9.15
2023-01-18T00:31:32.230Z,8.63
2023-01-18T00:32:35.160Z,7.47
2023-01-18T00:33:45.868Z,8.20
2023-01-18T00:34:50.576Z,7.90
2023-01-18T00:35:56.854Z,8.60
2023-01-18T00:37:00.393Z,7.82
2023-01-18T00:38:02.981Z,8.30
2023-01-18T00:39:14.825Z,8.60
2023-01-18T00:40:17.468Z,8.63
2023-01-18T00:41:27.820Z,8.77
2023-01-18T00:42:48.891Z,9.25
2023-01-18T00:43:51.972Z,9.27
2023-01-18T00:44:55.526Z,8.80
2023-01-18T00:45:58.110Z,9.80
2023-01-18T00:47:09.808Z,10.50
2023-01-18T00:48:12.284Z,9.88
2023-01-18T00:49:15.685Z,9.68
2023-01-18T00:50:19.655Z,10.35
2023-01-18T00:51:29.820Z,9.95
2023-01-18T00:52:40.859Z,10.00
2023-01-18T00:53:50.060Z,10.88
2023-01-18T00:54:53.502Z,9.63
2023-01-18T00:55:56.266Z,9.85
2023-01-18T00:56:59.809Z,9.40
2023-01-18T00:58:08.797Z,9.63
2023-01-18T00:59:12.236Z,9.07
2023-01-18T01:00:15.390Z,10.52
2023-01-18T01:01:25.894Z,11.73
2023-01-18T01:02:29.771Z,12.75
2023-01-18T01:03:53.399Z,11.60
2023-01-18T01:05:17.813Z,9.98
2023-01-18T01:06:40.664Z,9.15
2023-01-18T01:07:43.147Z,9.70
2023-01-18T01:08:56.875Z,9.98
2023-01-18T01:09:59.674Z,9.15
2023-01-18T01:11:07.381Z,9.80
2023-01-18T01:12:28.423Z,10.02
2023-01-18T01:13:49.671Z,8.20
2023-01-18T01:15:17.823Z,8.25
2023-01-18T01:16:39.203Z,8.40
2023-01-18T01:18:01.527Z,8.48
2023-01-18T01:19:28.818Z,8.20
2023-01-18T01:20:55.817Z,8.93
2023-01-18T01:22:16.770Z,9.57
2023-01-18T01:23:38.790Z,10.05
2023-01-18T01:25:06.830Z,9.52
2023-01-18T01:26:30.813Z,9.43
2023-01-18T01:27:34.275Z,8.57
2023-01-18T01:28:36.862Z,9.98
2023-01-18T01:29:40.583Z,9.60
2023-01-18T01:30:50.884Z,9.23
2023-01-18T01:31:54.417Z,9.80
2023-01-18T01:32:58.667Z,9.57
2023-01-18T01:34:02.256Z,8.48
2023-01-18T01:35:04.925Z,8.77
2023-01-18T01:36:15.852Z,9.82
2023-01-18T01:37:18.333Z,9.23
2023-01-18T01:38:21.749Z,9.43
2023-01-18T01:39:24.581Z,9.13
2023-01-18T01:40:28.081Z,9.43
2023-01-18T01:41:37.829Z,9.82
2023-01-18T01:42:41.229Z,9.82
2023-01-18T01:43:45.058Z,9.82
2023-01-18T01:44:51.300Z,9.50
2023-01-18T01:45:53.871Z,9.40
2023-01-18T01:47:04.823Z,9.85
2023-01-18T01:48:11.685Z,9.80
2023-01-18T01:49:16.578Z,8.63
2023-01-18T01:50:22.572Z,9.15
2023-01-18T01:51:25.120Z,9.57
2023-01-18T01:52:36.821Z,8.93
2023-01-18T01:53:39.478Z,8.68
2023-01-18T01:54:45.507Z,8.95
2023-01-18T01:55:54.830Z,9.82
2023-01-18T01:56:59.704Z,9.20
2023-01-18T01:58:03.322Z,9.88
2023-01-18T01:59:13.834Z,10.00
2023-01-18T02:00:19.555Z,8.85
2023-01-18T02:01:23.162Z,9.82
2023-01-18T02:02:26.015Z,9.15
2023-01-18T02:03:38.829Z,9.25
2023-01-18T02:04:44.281Z,9.93
2023-01-18T02:05:49.753Z,9.60
2023-01-18T02:06:53.345Z,9.27
2023-01-18T02:08:03.836Z,10.10
2023-01-18T02:09:07.711Z,9.57
2023-01-18T02:10:11.985Z,9.77
2023-01-18T02:11:20.836Z,10.30
2023-01-18T02:12:24.272Z,10.50
2023-01-18T02:13:27.150Z,11.00
2023-01-18T02:14:31.332Z,10.40
2023-01-18T02:15:43.848Z,10.15
2023-01-18T02:16:55.183Z,9.90
2023-01-18T02:18:04.333Z,9.68
2023-01-18T02:19:14.600Z,10.18
2023-01-18T02:20:34.899Z,9.73
2023-01-18T02:21:47.817Z,9.55
2023-01-18T02:23:07.910Z,9.25
2023-01-18T02:24:25.841Z,9.18
2023-01-18T02:25:53.866Z,10.07
2023-01-18T02:27:13.010Z,8.98
2023-01-18T02:28:18.184Z,8.90
2023-01-18T02:29:25.574Z,9.77
2023-01-18T02:30:32.215Z,10.70
2023-01-18T02:31:44.836Z,9.82
2023-01-18T02:32:56.939Z,9.82
2023-01-18T02:34:04.606Z,9.27
2023-01-18T02:35:11.035Z,9.88
2023-01-18T02:36:18.429Z,9.45
2023-01-18T02:37:32.835Z,10.25
2023-01-18T02:38:40.793Z,9.88
2023-01-18T02:39:45.528Z,9.77
2023-01-18T02:40:55.738Z,11.30
2023-01-18T02:42:27.804Z,12.95
2023-01-18T02:43:51.867Z,12.00
2023-01-18T02:45:12.434Z,12.45
2023-01-18T02:46:34.901Z,11.30
2023-01-18T02:47:45.867Z,10.25
2023-01-18T02:48:49.732Z,9.90
2023-01-18T02:49:53.147Z,10.00
2023-01-18T02:50:55.643Z,10.68
2023-01-18T02:52:02.229Z,9.50
2023-01-18T02:53:10.884Z,9.80
2023-01-18T02:54:24.215Z,9.43
2023-01-18T02:55:34.647Z,9.88
2023-01-18T02:56:40.227Z,10.35
2023-01-18T02:57:42.779Z,10.00
2023-01-18T02:58:55.817Z,10.65
2023-01-18T03:00:07.815Z,9.65
2023-01-18T03:01:12.598Z,9.43
2023-01-18T03:02:17.221Z,9.80
2023-01-18T03:03:21.960Z,9.65
2023-01-18T03:04:32.865Z,9.68
2023-01-18T03:05:37.562Z,9.38
2023-01-18T03:06:41.683Z,10.15
2023-01-18T03:07:47.898Z,9.60
2023-01-18T03:08:53.056Z,9.32
2023-01-18T03:10:03.834Z,9.25
2023-01-18T03:11:09.078Z,9.57
2023-01-18T03:12:17.828Z,9.93
2023-01-18T03:13:24.659Z,10.20
2023-01-18T03:14:38.342Z,8.52
2023-01-18T03:15:51.884Z,9.93
2023-01-18T03:17:00.748Z,10.07
2023-01-18T03:18:06.668Z,9.82
2023-01-18T03:19:31.277Z,10.38
2023-01-18T03:20:42.807Z,11.48
2023-01-18T03:21:47.531Z,11.27
2023-01-18T03:23:10.531Z,10.27
2023-01-18T03:24:16.136Z,10.70
2023-01-18T03:25:26.920Z,10.13
2023-01-18T03:26:40.358Z,9.90
2023-01-18T03:28:01.764Z,9.43
2023-01-18T03:29:23.881Z,9.43
2023-01-18T03:30:52.900Z,10.00
2023-01-18T03:32:24.828Z,10.20
2023-01-18T03:33:47.284Z,10.15
2023-01-18T03:34:53.205Z,10.25
2023-01-18T03:35:56.297Z,9.82
2023-01-18T03:37:08.914Z,10.57
2023-01-18T03:38:11.650Z,10.23
2023-01-18T03:39:19.730Z,10.50
2023-01-18T03:40:24.710Z,10.18
2023-01-18T03:41:30.333Z,11.35
2023-01-18T03:42:41.850Z,11.52
2023-01-18T03:43:45.151Z,10.55
2023-01-18T03:44:52.749Z,11.02
2023-01-18T03:45:57.157Z,11.20
2023-01-18T03:47:06.814Z,10.93
2023-01-18T03:48:16.862Z,11.65
2023-01-18T03:49:20.443Z,11.75
2023-01-18T03:50:24.759Z,11.95
2023-01-18T03:51:33.403Z,13.40
2023-01-18T03:52:44.866Z,11.27
2023-01-18T03:53:57.032Z,12.95
2023-01-18T03:55:03.175Z,11.73
2023-01-18T03:56:08.038Z,12.77
2023-01-18T03:57:14.192Z,13.07
2023-01-18T03:58:28.861Z,16.70
2023-01-18T03:59:34.749Z,15.18
2023-01-18T04:00:38.693Z,14.45
2023-01-18T04:01:45.039Z,14.15
2023-01-18T04:02:49.522Z,13.07
2023-01-18T04:03:59.896Z,16.58
2023-01-18T04:05:05.207Z,15.93
2023-01-18T04:06:08.570Z,14.48
2023-01-18T04:07:12.157Z,17.38
2023-01-18T04:08:15.406Z,11.80
2023-01-18T04:09:25.908Z,13.80
2023-01-18T04:10:31.504Z,11.88
2023-01-18T04:11:35.060Z,13.25
2023-01-18T04:12:37.551Z,12.88
2023-01-18T04:13:40.976Z,14.55
2023-01-18T04:14:49.851Z,14.50
2023-01-18T04:15:53.281Z,14.18
2023-01-18T04:16:57.153Z,14.07
2023-01-18T04:18:00.581Z,13.35
2023-01-18T04:19:03.155Z,14.48
2023-01-18T04:20:13.863Z,13.80
2023-01-18T04:21:16.472Z,11.55
2023-01-18T04:22:19.956Z,12.85
2023-01-18T04:23:28.818Z,14.15
2023-01-18T04:24:32.272Z,14.23
2023-01-18T04:25:45.821Z,13.07
2023-01-18T04:27:02.833Z,11.40
2023-01-18T04:28:11.863Z,10.80
2023-01-18T04:29:15.381Z,11.43
2023-01-18T04:30:18.226Z,12.27
2023-01-18T04:31:22.141Z,12.27
2023-01-18T04:32:32.852Z,14.95
2023-01-18T04:33:36.572Z,12.30
2023-01-18T04:34:39.221Z,10.80
2023-01-18T04:35:42.634Z,13.27
2023-01-18T04:36:46.085Z,12.00
2023-01-18T04:37:58.838Z,11.20
2023-01-18T04:39:02.305Z,14.30
2023-01-18T04:40:05.143Z,18.70
2023-01-18T04:41:08.565Z,15.48
2023-01-18T04:42:11.123Z,11.60
2023-01-18T04:43:20.852Z,26.05
2023-01-18T04:44:23.397Z,17.35
2023-01-18T04:45:33.842Z,23.52
2023-01-18T04:46:38.363Z,12.88
2023-01-18T04:47:42.889Z,19.40
2023-01-18T04:48:52.870Z,16.35
2023-01-18T04:50:02.850Z,11.25
2023-01-18T04:51:12.866Z,12.73
2023-01-18T04:52:15.660Z,11.95
2023-01-18T04:53:26.863Z,15.05
2023-01-18T04:54:31.401Z,17.13
2023-01-18T04:55:33.976Z,11.35
2023-01-18T04:56:43.846Z,13.32
2023-01-18T04:57:46.397Z,11.32
2023-01-18T04:58:49.824Z,10.73
2023-01-18T04:59:52.323Z,11.00
2023-01-18T05:01:02.101Z,10.98
2023-01-18T05:02:04.724Z,11.82
2023-01-18T05:03:10.051Z,11.30
2023-01-18T05:04:12.561Z,10.95
2023-01-18T05:05:16.023Z,11.70
2023-01-18T05:06:26.855Z,11.93
2023-01-18T05:07:31.295Z,13.15
2023-01-18T05:08:34.204Z,13.45
2023-01-18T05:09:37.885Z,13.15
2023-01-18T05:10:46.842Z,16.60
2023-01-18T05:11:50.311Z,14.80
2023-01-18T05:12:52.804Z,16.65
2023-01-18T05:13:56.416Z,15.15
2023-01-18T05:14:58.906Z,24.65
2023-01-18T05:16:09.854Z,14.68
2023-01-18T05:17:12.404Z,15.05
2023-01-18T05:18:23.853Z,18.08
2023-01-18T05:19:30.098Z,13.88
2023-01-18T05:20:39.877Z,15.30
2023-01-18T05:21:42.393Z,15.30
2023-01-18T05:22:45.895Z,13.20
2023-01-18T05:23:48.481Z,13.15
2023-01-18T05:24:52.010Z,16.25
2023-01-18T05:26:07.889Z,15.02
2023-01-18T05:27:18.038Z,12.43
2023-01-18T05:28:20.707Z,13.88
2023-01-18T05:29:24.245Z,18.88
2023-01-18T05:30:26.815Z,16.27
2023-01-18T05:31:36.925Z,18.92
2023-01-18T05:32:45.871Z,13.98
2023-01-18T05:33:50.738Z,25.30
2023-01-18T05:34:53.229Z,19.05
2023-01-18T05:35:57.123Z,17.58
2023-01-18T05:37:00.017Z,16.98
2023-01-18T05:38:10.211Z,15.57
2023-01-18T05:39:13.641Z,12.73
2023-01-18T05:40:16.193Z,25.23
2023-01-18T05:41:21.080Z,20.73
2023-01-18T05:42:23.735Z,24.58
2023-01-18T05:43:35.782Z,23.95
2023-01-18T05:44:39.289Z,16.60
2023-01-18T05:45:42.951Z,23.83
2023-01-18T05:46:46.449Z,20.73
2023-01-18T05:47:55.880Z,14.57
2023-01-18T05:49:00.994Z,17.70
2023-01-18T05:50:03.478Z,18.02
2023-01-18T05:51:09.844Z,16.13
2023-01-18T05:52:12.383Z,15.30
2023-01-18T05:53:23.913Z,13.63
2023-01-18T05:54:26.445Z,22.63
2023-01-18T05:55:30.128Z,13.90
2023-01-18T05:56:34.110Z,15.98
2023-01-18T05:57:36.783Z,19.08
2023-01-18T05:58:47.055Z,17.77
2023-01-18T05:59:55.854Z,16.20
2023-01-18T06:00:59.766Z,18.38
2023-01-18T06:02:02.330Z,18.27
2023-01-18T06:03:05.814Z,24.42
2023-01-18T06:04:11.257Z,21.60
2023-01-18T06:05:20.093Z,24.33
2023-01-18T06:06:23.538Z,18.45
2023-01-18T06:07:26.033Z,30.98
2023-01-18T06:08:29.694Z,24.50
2023-01-18T06:09:32.224Z,18.92
2023-01-18T06:10:41.884Z,23.60
2023-01-18T06:11:45.326Z,20.20
2023-01-18T06:12:48.161Z,29.30
2023-01-18T06:13:52.364Z,20.52
2023-01-18T06:14:54.876Z,19.50
2023-01-18T06:16:05.932Z,24.98
2023-01-18T06:17:09.331Z,15.20
2023-01-18T06:18:12.849Z,19.35
2023-01-18T06:19:17.951Z,17.88
2023-01-18T06:20:27.988Z,18.17
2023-01-18T06:21:32.051Z,21.13
2023-01-18T06:22:41.004Z,29.42
2023-01-18T06:23:44.469Z,20.80
2023-01-18T06:25:01.475Z,20.25
2023-01-18T06:26:17.986Z,27.80
2023-01-18T06:27:27.422Z,22.13
2023-01-18T06:28:37.855Z,22.77
2023-01-18T06:29:41.354Z,16.48
2023-01-18T06:30:43.901Z,17.08
2023-01-18T06:31:47.426Z,25.70
2023-01-18T06:32:57.303Z,36.15
2023-01-18T06:34:07.857Z,27.70
2023-01-18T06:35:11.777Z,23.35
2023-01-18T06:36:15.540Z,16.95
2023-01-18T06:37:18.074Z,32.25
2023-01-18T06:38:27.866Z,28.42
2023-01-18T06:39:30.386Z,21.67
2023-01-18T06:40:33.883Z,21.23
2023-01-18T06:41:37.365Z,19.17
2023-01-18T06:42:39.847Z,17.67
2023-01-18T06:43:49.867Z,22.58
2023-01-18T06:44:52.461Z,22.55
2023-01-18T06:45:56.513Z,26.08
2023-01-18T06:47:05.863Z,29.25
2023-01-18T06:48:09.298Z,38.13
2023-01-18T06:49:12.277Z,31.85
2023-01-18T06:50:17.774Z,33.60
2023-01-18T06:51:26.953Z,19.67
2023-01-18T06:52:30.400Z,19.58
2023-01-18T06:53:36.759Z,26.35
2023-01-18T06:54:40.327Z,26.13
2023-01-18T06:55:43.758Z,25.95
2023-01-18T06:56:54.869Z,23.23
2023-01-18T06:57:57.412Z,25.00
2023-01-18T06:59:01.182Z,23.00
2023-01-18T07:00:06.298Z,21.65
2023-01-18T07:01:09.968Z,26.40
2023-01-18T07:02:23.834Z,26.33
2023-01-18T07:03:26.725Z,27.00
2023-01-18T07:04:36.909Z,26.95
2023-01-18T07:05:40.729Z,27.88
2023-01-18T07:06:44.125Z,30.38
2023-01-18T07:07:47.600Z,39.92
2023-01-18T07:08:51.209Z,40.25
2023-01-18T07:09:59.841Z,37.33
2023-01-18T07:11:06.348Z,36.55
2023-01-18T07:12:09.436Z,38.30
2023-01-18T07:13:19.859Z,35.88
2023-01-18T07:14:28.864Z,35.00
2023-01-18T07:15:32.284Z,30.13
2023-01-18T07:16:34.792Z,31.77
2023-01-18T07:17:38.744Z,31.85
2023-01-18T07:18:50.890Z,26.08
2023-01-18T07:19:54.457Z,22.33
2023-01-18T07:20:59.097Z,20.65
2023-01-18T07:22:02.623Z,19.80
2023-01-18T07:23:05.129Z,19.27
2023-01-18T07:24:14.895Z,17.52
2023-01-18T07:25:18.847Z,16.42
2023-01-18T07:26:42.828Z,16.95
2023-01-18T07:27:46.247Z,15.32
2023-01-18T07:28:50.078Z,15.77
2023-01-18T07:29:58.878Z,13.82
2023-01-18T07:31:02.688Z,14.88
2023-01-18T07:32:05.452Z,13.82
2023-01-18T07:33:09.009Z,13.05
2023-01-18T07:34:17.882Z,13.98
2023-01-18T07:35:22.260Z,12.77
2023-01-18T07:36:26.178Z,14.18
2023-01-18T07:37:29.588Z,13.07
2023-01-18T07:38:32.155Z,13.27
2023-01-18T07:39:42.534Z,13.43
2023-01-18T07:40:46.733Z,13.50
2023-01-18T07:41:49.251Z,12.10
2023-01-18T07:42:58.806Z,12.25
2023-01-18T07:44:02.161Z,13.05
2023-01-18T07:45:14.860Z,13.00
2023-01-18T07:46:20.086Z,12.75
2023-01-18T07:47:23.569Z,13.23
2023-01-18T07:48:32.859Z,13.43
2023-01-18T07:49:36.309Z,11.48
2023-01-18T07:50:44.858Z,11.77
2023-01-18T07:51:49.588Z,12.18
2023-01-18T07:52:52.059Z,11.38
2023-01-18T07:54:02.861Z,12.25
2023-01-18T07:55:06.848Z,10.25
2023-01-18T07:56:19.896Z,12.38
2023-01-18T07:57:23.402Z,13.20
2023-01-18T07:58:26.814Z,12.27
2023-01-18T07:59:32.488Z,13.15
2023-01-18T08:00:35.057Z,14.10
2023-01-18T08:01:44.946Z,13.75
2023-01-18T08:02:54.367Z,13.32
2023-01-18T08:03:57.831Z,13.95
2023-01-18T08:05:00.520Z,17.00
2023-01-18T08:06:04.528Z,16.08
2023-01-18T08:07:15.873Z,15.50
2023-01-18T08:08:18.482Z,15.80
2023-01-18T08:09:21.989Z,17.73
2023-01-18T08:10:27.612Z,18.98
2023-01-18T08:11:37.870Z,20.75
2023-01-18T08:12:41.392Z,21.98
2023-01-18T08:13:44.829Z,23.42
2023-01-18T08:14:54.869Z,24.63
2023-01-18T08:16:06.940Z,26.52
2023-01-18T08:17:10.417Z,25.00
2023-01-18T08:18:14.789Z,28.42
2023-01-18T08:19:24.857Z,28.17
2023-01-18T08:20:27.400Z,26.10
2023-01-18T08:21:39.009Z,27.73
2023-01-18T08:22:43.772Z,25.10
2023-01-18T08:23:47.187Z,23.20
2023-01-18T08:24:49.731Z,24.17
2023-01-18T08:25:53.277Z,23.55
2023-01-18T08:27:09.884Z,23.33
2023-01-18T08:28:26.878Z,21.83
2023-01-18T08:29:30.305Z,21.75
2023-01-18T08:30:34.215Z,20.20
2023-01-18T08:31:37.708Z,21.25
2023-01-18T08:32:40.895Z,21.00
2023-01-18T08:33:52.876Z,23.08
2023-01-18T08:34:56.373Z,20.65
2023-01-18T08:35:58.898Z,22.23
2023-01-18T08:37:02.347Z,23.05
2023-01-18T08:38:06.455Z,22.85
2023-01-18T08:39:16.844Z,23.15
2023-01-18T08:40:19.583Z,22.42
2023-01-18T08:41:34.869Z,23.02
2023-01-18T08:42:38.347Z,21.48
2023-01-18T08:43:42.908Z,21.55
2023-01-18T08:44:48.089Z,21.52
2023-01-18T08:45:51.445Z,22.50
2023-01-18T08:47:01.849Z,22.73
2023-01-18T08:48:06.465Z,23.70
2023-01-18T08:49:09.895Z,22.90
2023-01-18T08:50:13.465Z,21.38
2023-01-18T08:51:18.179Z,22.58
2023-01-18T08:52:27.867Z,21.73
2023-01-18T08:53:32.832Z,22.20
2023-01-18T08:54:35.398Z,21.95
2023-01-18T08:55:40.463Z,20.98
2023-01-18T08:56:50.881Z,21.88
2023-01-18T08:58:03.867Z,21.98
2023-01-18T08:59:09.604Z,22.00
2023-01-18T09:00:13.747Z,21.70
2023-01-18T09:01:16.388Z,22.45
2023-01-18T09:02:25.896Z,22.90
2023-01-18T09:03:35.879Z,23.85
2023-01-18T09:04:38.384Z,22.40
2023-01-18T09:05:41.821Z,23.13
2023-01-18T09:06:44.937Z,23.13
2023-01-18T09:07:48.377Z,23.77
2023-01-18T09:08:59.911Z,25.05
2023-01-18T09:10:03.389Z,25.33
2023-01-18T09:11:07.661Z,26.02
2023-01-18T09:12:10.230Z,24.33
2023-01-18T09:13:19.891Z,22.33
2023-01-18T09:14:23.330Z,22.95
2023-01-18T09:15:27.093Z,22.60
2023-01-18T09:16:31.188Z,21.92
2023-01-18T09:17:34.136Z,22.42
2023-01-18T09:18:44.868Z,22.45
2023-01-18T09:19:47.377Z,22.05
2023-01-18T09:20:51.281Z,22.67
2023-01-18T09:21:54.672Z,22.67
2023-01-18T09:22:58.410Z,23.27
2023-01-18T09:24:09.963Z,23.80
2023-01-18T09:25:13.497Z,24.40
2023-01-18T09:26:24.046Z,27.83
2023-01-18T09:27:34.266Z,28.13
2023-01-18T09:28:37.058Z,28.40
2023-01-18T09:29:46.952Z,30.40
2023-01-18T09:30:50.346Z,29.90
2023-01-18T09:31:54.305Z,28.95
2023-01-18T09:32:59.011Z,28.42
2023-01-18T09:34:18.383Z,29.05
2023-01-18T09:35:28.891Z,27.58
2023-01-18T09:36:32.499Z,26.80
2023-01-18T09:37:35.938Z,27.67
2023-01-18T09:38:40.122Z,28.65
2023-01-18T09:39:52.678Z,30.25
2023-01-18T09:41:02.888Z,37.75
2023-01-18T09:42:06.343Z,32.65
2023-01-18T09:43:14.588Z,30.25
2023-01-18T09:44:22.279Z,28.38
2023-01-18T09:45:35.873Z,29.73
2023-01-18T09:46:41.982Z,25.85
2023-01-18T09:47:46.356Z,24.60
2023-01-18T09:48:53.032Z,24.73
2023-01-18T09:50:02.953Z,22.67
2023-01-18T09:51:08.802Z,22.63
2023-01-18T09:52:22.806Z,18.42
2023-01-18T09:53:31.693Z,18.52
2023-01-18T09:54:40.081Z,16.23
2023-01-18T09:55:55.865Z,16.25
2023-01-18T09:57:01.510Z,13.38
2023-01-18T09:58:18.970Z,11.50
2023-01-18T09:59:28.623Z,10.10
2023-01-18T10:00:33.824Z,9.80
2023-01-18T10:01:37.863Z,10.60
2023-01-18T10:02:41.001Z,8.13
2023-01-18T10:03:57.860Z,7.93
2023-01-18T10:05:04.691Z,6.82
2023-01-18T10:06:15.541Z,6.30
2023-01-18T10:07:20.368Z,6.70
2023-01-18T10:08:32.856Z,6.88
2023-01-18T10:09:38.500Z,6.80
2023-01-18T10:10:43.923Z,6.95
2023-01-18T10:11:54.433Z,7.40
2023-01-18T10:13:05.391Z,7.30
2023-01-18T10:14:16.940Z,7.35
2023-01-18T10:15:22.631Z,7.82
2023-01-18T10:16:25.752Z,7.63
2023-01-18T10:17:35.569Z,8.73
2023-01-18T10:18:45.790Z,8.23
2023-01-18T10:19:55.916Z,7.63
2023-01-18T10:21:00.166Z,9.75
2023-01-18T10:22:07.124Z,10.02
2023-01-18T10:23:13.593Z,10.60
2023-01-18T10:24:33.931Z,10.35
2023-01-18T10:25:39.367Z,11.43
2023-01-18T10:26:49.090Z,9.75
2023-01-18T10:28:14.597Z,10.20
2023-01-18T10:29:22.731Z,9.48
2023-01-18T10:30:36.839Z,9.35
2023-01-18T10:31:44.178Z,9.35
2023-01-18T10:32:50.916Z,10.32
2023-01-18T10:33:55.598Z,10.20
2023-01-18T10:34:58.560Z,10.10
2023-01-18T10:36:11.834Z,10.60
2023-01-18T10:37:19.056Z,10.73
2023-01-18T10:38:23.531Z,11.13
2023-01-18T10:39:30.849Z,12.02
2023-01-18T10:40:40.943Z,11.85
2023-01-18T10:41:45.436Z,10.82
2023-01-18T10:42:49.831Z,12.30
2023-01-18T10:43:54.584Z,12.70
2023-01-18T10:44:58.338Z,12.82
2023-01-18T10:46:08.007Z,13.52
2023-01-18T10:47:12.074Z,13.20
2023-01-18T10:48:34.848Z,12.93
2023-01-18T10:49:38.383Z,12.73
2023-01-18T10:50:46.095Z,12.02
2023-01-18T10:51:55.974Z,12.23
2023-01-18T10:52:59.817Z,11.93
2023-01-18T10:54:22.352Z,11.80
2023-01-18T10:55:25.977Z,12.25
2023-01-18T10:56:30.248Z,12.35
2023-01-18T10:57:42.986Z,12.93
2023-01-18T10:58:49.295Z,12.07
2023-01-18T11:00:01.052Z,12.52
2023-01-18T11:01:04.653Z,12.48
2023-01-18T11:02:15.927Z,13.85
2023-01-18T11:03:25.887Z,13.52
2023-01-18T11:04:29.556Z,12.60
2023-01-18T11:05:34.681Z,13.70
2023-01-18T11:06:46.628Z,12.45
2023-01-18T11:07:49.167Z,12.55
2023-01-18T11:08:59.902Z,12.73
2023-01-18T11:10:09.678Z,13.10
2023-01-18T11:11:18.238Z,13.98
2023-01-18T11:12:39.840Z,12.98
2023-01-18T11:13:50.925Z,12.88
2023-01-18T11:14:54.757Z,13.05
2023-01-18T11:16:22.228Z,13.15
2023-01-18T11:17:24.736Z,12.00
2023-01-18T11:18:28.779Z,12.02
2023-01-18T11:19:38.898Z,11.65
2023-01-18T11:20:51.253Z,12.27
2023-01-18T11:21:55.010Z,11.90
2023-01-18T11:22:59.175Z,12.55
2023-01-18T11:24:07.994Z,12.68
2023-01-18T11:25:23.901Z,11.90
2023-01-18T11:26:47.887Z,12.63
2023-01-18T11:27:57.472Z,10.68
2023-01-18T11:29:02.010Z,12.00
2023-01-18T11:30:12.896Z,10.45
2023-01-18T11:31:24.175Z,10.48
2023-01-18T11:32:28.934Z,9.10
2023-01-18T11:33:31.627Z,10.13
2023-01-18T11:34:36.180Z,8.70
2023-01-18T11:35:38.784Z,9.32
2023-01-18T11:36:49.954Z,11.02
2023-01-18T11:37:52.614Z,9.25
2023-01-18T11:38:56.096Z,8.05
2023-01-18T11:39:59.787Z,9.13
2023-01-18T11:41:13.910Z,8.10
2023-01-18T11:42:26.438Z,8.70
2023-01-18T11:43:35.941Z,8.80
2023-01-18T11:44:43.193Z,9.27
2023-01-18T11:45:53.544Z,9.15
2023-01-18T11:46:58.017Z,9.55
2023-01-18T11:48:05.850Z,10.82
2023-01-18T11:49:19.864Z,10.93
2023-01-18T11:50:34.946Z,10.48
2023-01-18T11:51:40.169Z,9.63
2023-01-18T11:52:46.820Z,9.38
2023-01-18T11:53:55.452Z,8.95
2023-01-18T11:55:02.132Z,9.25
2023-01-18T11:56:16.931Z,9.10
2023-01-18T11:57:20.399Z,9.65
2023-01-18T11:58:25.464Z,9.35
2023-01-18T11:59:31.158Z,10.70
2023-01-18T12:00:42.588Z,11.63
2023-01-18T12:02:10.983Z,11.85
2023-01-18T12:03:27.159Z,10.80
2023-01-18T12:04:37.258Z,10.55
2023-01-18T12:05:46.001Z,10.75
2023-01-18T12:06:59.855Z,9.95
2023-01-18T12:08:13.003Z,9.70
2023-01-18T12:09:34.318Z,10.73
2023-01-18T12:10:42.873Z,9.88
2023-01-18T12:12:03.624Z,9.30
2023-01-18T12:13:22.717Z,9.07
2023-01-18T12:14:33.349Z,7.75
2023-01-18T12:15:46.504Z,8.45
2023-01-18T12:17:06.533Z,7.93
2023-01-18T12:18:19.444Z,9.00
2023-01-18T12:19:43.843Z,8.63
2023-01-18T12:20:53.780Z,8.25
2023-01-18T12:22:12.923Z,9.73
2023-01-18T12:23:41.925Z,10.13
2023-01-18T12:24:50.604Z,10.20
2023-01-18T12:26:11.766Z,11.18
2023-01-18T12:27:33.020Z,10.75
2023-01-18T12:28:47.907Z,10.88
2023-01-18T12:30:13.994Z,10.43
2023-01-18T12:31:22.339Z,11.93
2023-01-18T12:32:32.160Z,12.05
2023-01-18T12:33:47.922Z,12.38
2023-01-18T12:34:56.263Z,12.10
2023-01-18T12:36:13.020Z,11.85
2023-01-18T12:37:28.584Z,11.18
2023-01-18T12:38:32.622Z,12.27
2023-01-18T12:39:49.867Z,12.05
2023-01-18T12:41:08.205Z,11.27
2023-01-18T12:42:15.263Z,10.88
2023-01-18T12:43:33.595Z,11.05
2023-01-18T12:45:01.919Z,11.07
2023-01-18T12:46:07.225Z,10.65
2023-01-18T12:47:21.664Z,11.23
2023-01-18T12:48:28.381Z,10.10
2023-01-18T12:49:41.073Z,10.07
2023-01-18T12:50:45.146Z,9.90
2023-01-18T12:52:12.920Z,10.25
2023-01-18T12:53:25.719Z,9.90
2023-01-18T12:54:30.676Z,9.93
2023-01-18T12:55:36.284Z,8.10
2023-01-18T12:56:40.578Z,9.05
2023-01-18T12:57:50.877Z,8.82
2023-01-18T12:58:56.241Z,9.05
2023-01-18T13:00:00.648Z,8.80
2023-01-18T13:01:06.789Z,9.18
2023-01-18T13:02:28.932Z,9.55
2023-01-18T13:03:37.831Z,10.25
2023-01-18T13:04:44.595Z,10.07
2023-01-18T13:05:52.616Z,9.73
2023-01-18T13:06:59.041Z,9.63
2023-01-18T13:08:12.895Z,9.30
2023-01-18T13:09:17.929Z,9.32
2023-01-18T13:10:23.286Z,10.27
2023-01-18T13:11:28.254Z,10.50
2023-01-18T13:12:39.897Z,9.82
2023-01-18T13:13:51.889Z,8.95
2023-01-18T13:15:05.120Z,9.82
2023-01-18T13:16:17.015Z,9.35
2023-01-18T13:17:22.558Z,9.13
2023-01-18T13:18:33.898Z,9.40
2023-01-18T13:19:41.281Z,9.38
2023-01-18T13:20:50.719Z,8.77
2023-01-18T13:22:15.914Z,9.15
2023-01-18T13:23:22.579Z,9.27
2023-01-18T13:24:36.913Z,9.32
2023-01-18T13:25:48.511Z,9.73
2023-01-18T13:26:58.009Z,9.25
2023-01-18T13:28:23.941Z,9.60
2023-01-18T13:29:29.717Z,9.02
2023-01-18T13:30:33.415Z,8.00
2023-01-18T13:31:37.172Z,8.40
2023-01-18T13:32:42.482Z,8.55
2023-01-18T13:33:52.939Z,8.77
2023-01-18T13:35:19.110Z,9.02
2023-01-18T13:36:23.857Z,8.35
2023-01-18T13:37:41.982Z,8.85
2023-01-18T13:38:57.013Z,8.85
2023-01-18T13:40:00.734Z,8.98
2023-01-18T13:41:05.672Z,9.55
2023-01-18T13:42:27.717Z,9.63
2023-01-18T13:43:38.499Z,9.32
2023-01-18T13:44:43.647Z,9.65
2023-01-18T13:46:02.383Z,9.93
2023-01-18T13:47:25.784Z,10.60
2023-01-18T13:48:54.947Z,9.65
2023-01-18T13:49:59.998Z,9.82
2023-01-18T13:51:03.463Z,10.35
2023-01-18T13:52:28.143Z,10.05
2023-01-18T13:53:49.072Z,10.70
2023-01-18T13:55:10.466Z,10.10
2023-01-18T13:56:27.751Z,11.25
2023-01-18T13:57:38.901Z,11.13
2023-01-18T13:58:53.102Z,11.68
2023-01-18T13:59:56.910Z,11.88
2023-01-18T14:01:03.496Z,12.23
2023-01-18T14:02:14.927Z,11.85
2023-01-18T14:03:23.644Z,11.90
2023-01-18T14:04:36.992Z,12.02
2023-01-18T14:05:45.079Z,12.57
2023-01-18T14:06:48.996Z,11.60
2023-01-18T14:07:53.844Z,11.70
2023-01-18T14:09:04.942Z,11.82
2023-01-18T14:10:09.380Z,12.07
2023-01-18T14:11:25.060Z,11.77
2023-01-18T14:12:46.875Z,11.85
2023-01-18T14:14:09.937Z,11.32
2023-01-18T14:15:24.399Z,11.07
2023-01-18T14:16:29.144Z,12.52
2023-01-18T14:17:36.844Z,13.18
2023-01-18T14:18:57.110Z,12.27
2023-01-18T14:20:11.197Z,13.02
2023-01-18T14:21:23.260Z,13.32
2023-01-18T14:22:41.010Z,12.18
2023-01-18T14:24:12.973Z,11.85
2023-01-18T14:25:26.540Z,12.52
2023-01-18T14:26:30.035Z,11.85
2023-01-18T14:27:56.944Z,12.57
2023-01-18T14:29:01.387Z,11.45
2023-01-18T14:30:12.944Z,11.60
2023-01-18T14:31:18.055Z,12.73
2023-01-18T14:32:23.228Z,12.38
2023-01-18T14:33:28.531Z,11.73
2023-01-18T14:34:39.175Z,12.63
2023-01-18T14:35:58.974Z,12.15
2023-01-18T14:37:03.891Z,11.70
2023-01-18T14:38:17.561Z,11.88
2023-01-18T14:39:21.710Z,11.52
2023-01-18T14:40:32.939Z,11.32
2023-01-18T14:41:35.489Z,11.00
2023-01-18T14:42:42.767Z,10.60
2023-01-18T14:43:46.981Z,11.77
2023-01-18T14:44:58.343Z,10.02
2023-01-18T14:46:09.993Z,10.13
2023-01-18T14:47:24.005Z,11.23
2023-01-18T14:48:30.800Z,10.95
2023-01-18T14:49:37.501Z,11.00